Time;durP1;ratioP1;P1;durP2;ratioP2;P2;SDS_P1;SDS_P2;PMS_P1;PMS_P2;Temp;Humidity;BMP_temperature;BMP_pressure;BME280_temperature;BME280_humidity;BME280_pressure;Samples;Min_cycle;Max_cycle;Signal;HPM_P1;HPM_P2
2023/11/01 00:01:34;;;;;;;10.93;3.70;;;;;;;16.62;62.26;94294.69;4189743;28;20055;-69
2023/11/01 00:03:37;;;;;;;10.90;3.25;;;;;;;16.11;64.11;94296.97;4199775;28;20921;-71
2023/11/01 00:05:39;;;;;;;12.75;3.95;;;;;;;15.93;64.77;94302.03;4216084;28;20040;-70
2023/11/01 00:07:41;;;;;;;13.60;5.00;;;;;;;15.86;65.61;94309.94;4214958;28;20047;-69
2023/11/01 00:09:43;;;;;;;10.63;4.18;;;;;;;15.70;65.90;94318.19;4214088;28;20076;-71
2023/11/01 00:11:48;;;;;;;9.63;3.67;;;;;;;15.79;65.29;94318.84;4196928;28;20100;-70
2023/11/01 00:13:50;;;;;;;12.52;4.05;;;;;;;15.94;64.95;94319.53;4196709;28;20090;-70
2023/11/01 00:15:52;;;;;;;7.80;3.25;;;;;;;16.12;63.62;94327.66;4214179;28;20052;-69
2023/11/01 00:17:54;;;;;;;10.30;3.50;;;;;;;16.26;62.95;94338.22;4204588;28;20090;-68
2023/11/01 00:19:57;;;;;;;12.27;3.50;;;;;;;16.35;62.21;94332.53;4212581;28;20058;-68
2023/11/01 00:21:58;;;;;;;9.10;3.92;;;;;;;16.36;62.18;94334.16;4205929;28;20118;-69
2023/11/01 00:24:00;;;;;;;13.65;4.53;;;;;;;16.39;63.05;94330.31;4214832;28;20060;-68
2023/11/01 00:26:02;;;;;;;12.95;3.95;;;;;;;16.35;63.43;94334.38;4210030;28;20056;-68
2023/11/01 00:28:04;;;;;;;12.77;4.20;;;;;;;16.24;64.14;94342.91;4200026;28;20056;-69
2023/11/01 00:30:06;;;;;;;13.90;4.10;;;;;;;16.12;64.84;94345.34;4211576;28;20135;-70
2023/11/01 00:32:09;;;;;;;14.30;4.40;;;;;;;15.96;65.54;94328.06;4214642;28;20083;-69
2023/11/01 00:34:10;;;;;;;15.80;4.45;;;;;;;16.00;65.41;94309.94;4197017;28;20090;-70
2023/11/01 00:36:12;;;;;;;12.88;4.35;;;;;;;15.96;65.39;94323.59;4215246;28;20150;-70
2023/11/01 00:38:19;;;;;;;10.43;4.40;;;;;;;15.85;66.17;94326.81;4197150;28;20048;-68
2023/11/01 00:40:21;;;;;;;13.50;4.50;;;;;;;15.85;66.35;94316.25;4213731;28;20070;-70
2023/11/01 00:42:22;;;;;;;9.50;3.97;;;;;;;15.71;67.52;94309.28;4212414;28;20056;-69
2023/11/01 00:44:24;;;;;;;11.70;4.85;;;;;;;15.60;68.22;94315.97;4194403;28;20115;-71
2023/11/01 00:46:26;;;;;;;14.60;4.85;;;;;;;15.54;68.47;94314.09;4212447;28;20081;-71
2023/11/01 00:48:28;;;;;;;15.40;4.50;;;;;;;15.52;68.44;94326.69;4196367;28;20049;-68
2023/11/01 00:50:30;;;;;;;11.02;4.70;;;;;;;15.52;68.36;94330.13;4179945;28;20084;-67
2023/11/01 00:52:32;;;;;;;15.05;5.63;;;;;;;15.50;68.98;94339.28;4210321;28;20052;-69
2023/11/01 00:54:34;;;;;;;9.43;4.13;;;;;;;15.56;68.73;94335.84;4208447;28;20045;-67
2023/11/01 00:56:35;;;;;;;14.60;4.95;;;;;;;15.43;68.86;94341.09;4213421;28;20044;-69
2023/11/01 00:58:37;;;;;;;12.70;5.40;;;;;;;15.23;69.83;94338.34;4206670;28;20500;-70
2023/11/01 01:00:40;;;;;;;18.60;5.20;;;;;;;15.31;69.40;94343.47;4207997;28;20056;-70
2023/11/01 01:02:43;;;;;;;19.38;5.63;;;;;;;15.19;69.79;94343.22;4212696;28;20048;-69
2023/11/01 01:04:46;;;;;;;13.07;5.07;;;;;;;15.09;70.40;94337.47;4214568;28;20051;-70
2023/11/01 01:06:48;;;;;;;13.10;4.82;;;;;;;14.89;71.00;94334.75;4213328;28;20137;-69
2023/11/01 01:08:50;;;;;;;14.70;5.10;;;;;;;14.83;71.54;94320.50;4213772;28;20618;-69
2023/11/01 01:10:53;;;;;;;10.43;4.40;;;;;;;14.71;71.89;94314.97;4208652;28;20135;-70
2023/11/01 01:12:55;;;;;;;12.57;4.93;;;;;;;14.77;71.94;94312.56;4206738;28;20575;-70
2023/11/01 01:14:57;;;;;;;13.38;4.95;;;;;;;14.57;73.16;94321.16;4211980;28;20481;-69
2023/11/01 01:16:59;;;;;;;10.50;4.82;;;;;;;14.55;73.46;94328.44;4209799;28;20047;-70
2023/11/01 01:19:01;;;;;;;10.18;4.32;;;;;;;14.52;74.04;94336.72;4214303;28;20160;-69
2023/11/01 01:21:03;;;;;;;9.85;4.93;;;;;;;14.51;74.58;94335.06;4204407;28;20084;-70
2023/11/01 01:23:04;;;;;;;10.55;5.00;;;;;;;14.60;74.73;94333.13;4211662;28;20052;-69
2023/11/01 01:25:06;;;;;;;9.57;5.07;;;;;;;14.71;74.47;94330.78;4192926;28;20131;-69
2023/11/01 01:27:08;;;;;;;8.48;4.32;;;;;;;14.69;74.33;94326.69;4195778;28;20112;-69
2023/11/01 01:29:10;;;;;;;8.98;4.60;;;;;;;14.79;74.17;94321.09;4210138;28;20572;-70
2023/11/01 01:31:12;;;;;;;11.95;4.90;;;;;;;14.86;74.08;94311.38;4213242;28;20047;-68
2023/11/01 01:33:15;;;;;;;11.05;4.25;;;;;;;14.99;74.12;94311.44;4212796;28;20175;-72
2023/11/01 01:35:18;;;;;;;9.23;4.43;;;;;;;15.04;72.89;94308.25;4190835;28;20052;-68
2023/11/01 01:37:19;;;;;;;11.35;4.50;;;;;;;15.15;72.69;94316.41;4206492;28;20048;-70
2023/11/01 01:39:22;;;;;;;10.90;4.18;;;;;;;15.19;72.04;94313.38;4208539;28;20056;-70
2023/11/01 01:41:24;;;;;;;8.52;4.00;;;;;;;15.22;71.75;94316.44;4195223;28;20096;-70
2023/11/01 01:43:27;;;;;;;11.10;4.15;;;;;;;15.33;71.32;94313.22;4185671;28;20441;-73
2023/11/01 01:45:29;;;;;;;7.55;3.53;;;;;;;15.38;70.49;94325.00;4206287;28;20147;-69
2023/11/01 01:47:33;;;;;;;10.43;3.80;;;;;;;15.47;69.97;94326.47;4209249;28;20074;-69
2023/11/01 01:49:35;;;;;;;7.47;3.55;;;;;;;15.44;70.63;94334.78;4189764;28;20044;-70
2023/11/01 01:51:46;;;;;;;9.45;4.43;;;;;;;15.22;71.01;94336.72;4213882;28;20044;-69
2023/11/01 01:53:48;;;;;;;10.32;4.35;;;;;;;15.07;72.41;94329.75;4213982;28;20484;-69
2023/11/01 01:55:50;;;;;;;10.15;4.40;;;;;;;14.93;73.06;94322.81;4192262;28;20056;-67
2023/11/01 01:57:52;;;;;;;8.68;4.03;;;;;;;14.90;73.71;94325.81;4211730;28;20048;-70
2023/11/01 01:59:55;;;;;;;11.93;5.10;;;;;;;14.98;74.29;94325.66;4195331;28;20049;-69
2023/11/01 02:01:57;;;;;;;10.20;3.97;;;;;;;14.97;73.94;94331.97;4213066;28;20119;-69
2023/11/01 02:03:58;;;;;;;11.18;4.55;;;;;;;14.90;74.81;94337.16;4194650;28;20073;-69
2023/11/01 02:06:02;;;;;;;10.70;4.50;;;;;;;14.76;75.32;94334.69;4213403;28;20378;-69
2023/11/01 02:08:04;;;;;;;13.35;4.35;;;;;;;14.63;75.76;94336.22;4212860;28;20082;-69
2023/11/01 02:10:14;;;;;;;11.18;4.60;;;;;;;14.54;76.50;94334.72;4209803;28;20052;-70
2023/11/01 02:12:17;;;;;;;10.60;4.93;;;;;;;14.66;77.23;94327.09;4211548;28;20467;-70
2023/11/01 02:14:21;;;;;;;10.27;4.72;;;;;;;14.77;77.50;94334.47;4186028;28;20049;-70
2023/11/01 02:16:23;;;;;;;9.13;4.82;;;;;;;14.90;77.55;94331.09;4212001;28;20443;-69
2023/11/01 02:18:25;;;;;;;10.65;5.05;;;;;;;14.65;76.91;94336.03;4212472;28;20484;-70
2023/11/01 02:20:26;;;;;;;13.68;5.90;;;;;;;14.60;77.23;94347.13;4212050;28;20044;-69
2023/11/01 02:22:28;;;;;;;8.48;4.50;;;;;;;14.52;77.63;94348.06;4194825;28;20044;-68
2023/11/01 02:24:30;;;;;;;12.38;5.70;;;;;;;14.47;77.43;94345.19;4195396;28;20131;-71
2023/11/01 02:26:32;;;;;;;11.35;4.80;;;;;;;14.32;78.68;94350.53;4195001;28;20137;-69
2023/11/01 02:28:34;;;;;;;11.90;5.93;;;;;;;14.15;79.09;94343.91;4182393;28;20111;-69
2023/11/01 02:30:38;;;;;;;10.50;5.28;;;;;;;14.01;80.47;94348.25;4194174;28;20095;-70
2023/11/01 02:32:39;;;;;;;11.63;4.65;;;;;;;14.03;80.15;94345.44;4212801;28;20064;-70
2023/11/01 02:34:42;;;;;;;10.13;5.00;;;;;;;14.10;80.21;94341.03;4203699;28;20084;-71
2023/11/01 02:36:44;;;;;;;13.52;5.82;;;;;;;14.27;80.04;94345.03;4192015;28;20532;-70
2023/11/01 02:38:45;;;;;;;9.80;5.22;;;;;;;14.44;80.07;94353.47;4186835;28;20139;-69
2023/11/01 02:40:47;;;;;;;9.63;4.78;;;;;;;14.57;79.19;94355.44;4210692;28;20050;-69
2023/11/01 02:42:55;;;;;;;11.82;5.10;;;;;;;14.67;78.58;94360.34;4211397;28;20044;-70
2023/11/01 02:44:57;;;;;;;15.60;5.32;;;;;;;14.75;78.80;94354.94;4211652;28;20101;-70
2023/11/01 02:46:59;;;;;;;8.57;4.22;;;;;;;14.86;78.21;94351.78;4206600;28;20040;-70
2023/11/01 02:49:03;;;;;;;10.32;4.90;;;;;;;14.98;77.99;94348.59;4203868;28;20047;-68
2023/11/01 02:51:05;;;;;;;9.88;4.90;;;;;;;15.07;77.22;94350.06;4194864;28;20460;-69
2023/11/01 02:53:07;;;;;;;9.93;4.47;;;;;;;15.15;77.26;94358.63;4211781;28;20044;-70
2023/11/01 02:55:11;;;;;;;8.77;4.70;;;;;;;15.21;76.65;94364.94;4212493;28;20079;-69
2023/11/01 02:57:13;;;;;;;9.45;4.72;;;;;;;15.26;76.57;94367.00;4194011;28;20048;-69
2023/11/01 02:59:14;;;;;;;10.55;5.13;;;;;;;15.30;76.08;94362.97;4207540;28;20040;-70
2023/11/01 03:01:17;;;;;;;10.63;5.03;;;;;;;15.35;75.95;94371.91;4206473;28;20063;-68
2023/11/01 03:03:19;;;;;;;11.98;5.07;;;;;;;15.39;75.64;94361.78;4210604;28;20120;-71
2023/11/01 03:05:22;;;;;;;10.02;4.18;;;;;;;15.36;75.48;94362.97;4195526;28;20084;-71
2023/11/01 03:07:24;;;;;;;8.73;4.75;;;;;;;15.39;75.79;94361.78;4211644;28;20047;-71
2023/11/01 03:09:26;;;;;;;11.70;4.82;;;;;;;15.39;75.76;94359.13;4211615;28;20050;-72
2023/11/01 03:11:27;;;;;;;10.20;4.80;;;;;;;15.40;75.78;94359.94;4194303;28;20129;-71
2023/11/01 03:13:30;;;;;;;10.82;5.00;;;;;;;15.43;75.42;94359.56;4210632;28;20524;-71
2023/11/01 03:15:31;;;;;;;9.65;4.90;;;;;;;15.45;74.93;94366.28;4182112;28;20102;-70
2023/11/01 03:17:35;;;;;;;8.63;4.60;;;;;;;15.49;75.25;94379.91;4210600;28;20423;-69
2023/11/01 03:19:37;;;;;;;9.18;5.05;;;;;;;15.53;75.16;94389.88;4209262;28;20056;-68
2023/11/01 03:21:41;;;;;;;9.50;4.57;;;;;;;15.56;74.84;94388.66;4206842;28;20045;-69
2023/11/01 03:23:43;;;;;;;9.57;4.72;;;;;;;15.59;74.61;94385.59;4205437;28;20044;-70
2023/11/01 03:25:44;;;;;;;9.57;5.22;;;;;;;15.61;74.87;94382.78;4199464;28;20048;-70
2023/11/01 03:27:46;;;;;;;10.73;5.18;;;;;;;15.50;75.32;94379.69;4194142;28;20120;-68
2023/11/01 03:29:48;;;;;;;8.18;5.43;;;;;;;15.45;75.94;94379.47;4191923;28;20049;-64
2023/11/01 03:31:50;;;;;;;12.32;5.72;;;;;;;15.47;76.36;94377.44;4211889;28;20058;-70
2023/11/01 03:33:52;;;;;;;8.55;5.20;;;;;;;15.52;76.16;94368.94;4194812;28;20053;-71
2023/11/01 03:35:54;;;;;;;14.10;5.60;;;;;;;15.53;75.94;94371.38;4178249;28;20051;-69
2023/11/01 03:37:55;;;;;;;11.40;5.55;;;;;;;15.51;75.86;94368.13;4194153;28;20037;-70
2023/11/01 03:39:57;;;;;;;8.60;5.72;;;;;;;15.51;75.90;94373.41;4212408;28;20131;-71
2023/11/01 03:42:04;;;;;;;9.38;5.95;;;;;;;15.45;75.37;94365.47;4212510;28;20056;-68
2023/11/01 03:44:06;;;;;;;9.15;5.90;;;;;;;15.41;75.64;94356.31;4201978;28;20135;-71
2023/11/01 03:46:08;;;;;;;9.35;5.65;;;;;;;15.39;75.59;94356.50;4212016;28;20066;-68
2023/11/01 03:48:10;;;;;;;9.32;5.50;;;;;;;15.35;75.48;94355.25;4194777;28;20472;-72
2023/11/01 03:50:12;;;;;;;9.82;6.28;;;;;;;15.37;75.70;94363.78;4194401;28;20049;-68
2023/11/01 03:52:14;;;;;;;14.43;7.57;;;;;;;15.30;75.61;94355.84;4207033;28;20087;-69
2023/11/01 03:54:16;;;;;;;12.07;6.90;;;;;;;15.24;75.53;94361.91;4205561;28;20491;-67
2023/11/01 03:56:20;;;;;;;11.65;6.70;;;;;;;15.14;75.59;94364.91;4212037;28;20048;-69
2023/11/01 03:58:22;;;;;;;11.27;7.40;;;;;;;15.00;75.91;94362.41;4197871;28;20045;-70
2023/11/01 04:00:24;;;;;;;15.27;7.50;;;;;;;14.97;76.59;94366.25;4189561;28;20552;-69
2023/11/01 04:02:25;;;;;;;11.98;7.20;;;;;;;15.01;76.64;94362.19;4207594;28;20109;-69
2023/11/01 04:04:28;;;;;;;12.40;7.82;;;;;;;15.05;76.06;94362.63;4211088;28;20048;-68
2023/11/01 04:06:31;;;;;;;13.10;7.50;;;;;;;15.05;76.00;94363.44;4182154;28;20051;-70
2023/11/01 04:08:33;;;;;;;10.45;7.03;;;;;;;15.07;75.81;94373.78;4211809;28;20508;-69
2023/11/01 04:10:35;;;;;;;12.60;7.50;;;;;;;14.99;76.03;94379.22;4211443;28;20040;-69
2023/11/01 04:12:37;;;;;;;13.07;7.85;;;;;;;14.86;76.64;94383.44;4205747;28;20570;-68
2023/11/01 04:14:39;;;;;;;12.45;8.10;;;;;;;14.72;77.02;94390.41;4212084;28;20052;-70
2023/11/01 04:16:41;;;;;;;10.48;7.65;;;;;;;14.62;77.93;94387.28;4203957;28;20040;-69
2023/11/01 04:18:43;;;;;;;12.15;7.80;;;;;;;14.64;77.94;94390.56;4203936;28;20052;-70
2023/11/01 04:20:45;;;;;;;12.15;7.47;;;;;;;14.68;77.77;94378.63;4203098;28;20048;-70
2023/11/01 04:22:47;;;;;;;12.73;7.38;;;;;;;14.72;77.17;94377.22;4193820;28;20458;-69
2023/11/01 04:24:49;;;;;;;14.18;7.78;;;;;;;14.79;77.20;94379.09;4211663;28;20052;-68
2023/11/01 04:26:52;;;;;;;14.20;7.97;;;;;;;14.82;76.82;94392.72;4211665;28;20101;-69
2023/11/01 04:28:54;;;;;;;14.88;8.15;;;;;;;14.75;76.84;94389.22;4195541;28;20045;-72
2023/11/01 04:30:56;;;;;;;14.43;8.45;;;;;;;14.71;76.97;94387.97;4200964;28;20048;-69
2023/11/01 04:32:59;;;;;;;12.88;7.57;;;;;;;14.68;77.28;94383.09;4211128;28;20075;-70
2023/11/01 04:35:02;;;;;;;12.95;7.95;;;;;;;14.68;77.15;94388.34;4215335;28;20044;-69
2023/11/01 04:37:04;;;;;;;12.43;8.40;;;;;;;14.72;76.80;94390.41;4215131;28;20743;-70
2023/11/01 04:39:06;;;;;;;14.70;8.10;;;;;;;14.73;76.96;94394.69;4214286;28;20127;-71
2023/11/01 04:41:11;;;;;;;13.10;7.72;;;;;;;14.80;76.73;94391.25;4212601;28;20127;-71
2023/11/01 04:43:14;;;;;;;12.48;7.78;;;;;;;14.83;76.85;94393.53;4196704;28;20049;-71
2023/11/01 04:45:16;;;;;;;12.40;9.65;;;;;;;14.73;76.06;94397.34;4195466;28;20310;-70
2023/11/01 04:47:18;;;;;;;16.42;9.63;;;;;;;14.67;77.17;94398.09;4211916;28;20079;-69
2023/11/01 04:49:21;;;;;;;14.52;8.50;;;;;;;14.67;77.14;94392.81;4206556;28;20492;-68
2023/11/01 04:51:25;;;;;;;13.48;9.10;;;;;;;14.68;77.36;94388.34;4207732;28;20071;-68
2023/11/01 04:53:27;;;;;;;19.45;8.38;;;;;;;14.73;76.82;94392.06;4214615;28;20048;-68
2023/11/01 04:55:29;;;;;;;14.13;8.90;;;;;;;14.73;76.48;94392.06;4204868;28;20484;-69
2023/11/01 04:57:33;;;;;;;14.40;9.13;;;;;;;14.71;76.50;94390.59;4210917;28;20105;-70
2023/11/01 04:59:37;;;;;;;13.60;8.80;;;;;;;14.71;76.16;94396.72;4196128;28;20078;-72
2023/11/01 05:01:39;;;;;;;15.93;9.15;;;;;;;14.71;75.84;94394.06;4208798;28;20044;-70
2023/11/01 05:03:41;;;;;;;14.85;9.10;;;;;;;14.69;76.10;94393.44;4196066;28;20464;-71
2023/11/01 05:05:43;;;;;;;13.55;9.15;;;;;;;14.69;76.23;94406.63;4213617;28;20098;-70
2023/11/01 05:07:45;;;;;;;14.32;8.98;;;;;;;14.67;76.41;94411.28;4213835;28;20159;-73
2023/11/01 05:09:47;;;;;;;12.30;8.85;;;;;;;14.69;76.25;94414.53;4205268;28;20044;-73
2023/11/01 05:11:50;;;;;;;17.05;9.00;;;;;;;14.70;76.21;94410.88;4214135;28;20462;-72
2023/11/01 05:13:52;;;;;;;12.00;8.93;;;;;;;14.76;75.93;94411.16;4194920;28;20044;-70
2023/11/01 05:15:56;;;;;;;17.83;8.98;;;;;;;14.73;75.42;94418.44;4205232;28;20277;-70
2023/11/01 05:17:59;;;;;;;14.50;9.35;;;;;;;14.76;75.47;94422.50;4211035;28;20075;-71
2023/11/01 05:20:03;;;;;;;16.35;10.50;;;;;;;14.74;75.49;94425.31;4206975;28;20097;-70
2023/11/01 05:22:06;;;;;;;15.73;10.52;;;;;;;14.65;75.76;94434.38;4196262;28;20070;-71
2023/11/01 05:24:09;;;;;;;17.48;10.40;;;;;;;14.65;76.52;94436.22;4214161;28;20094;-71
2023/11/01 05:26:16;;;;;;;17.58;11.13;;;;;;;14.69;76.64;94440.91;4213292;28;20052;-72
2023/11/01 05:28:18;;;;;;;16.05;10.43;;;;;;;14.79;76.25;94442.38;4201166;28;20504;-70
2023/11/01 05:30:20;;;;;;;17.08;10.82;;;;;;;14.86;76.05;94441.44;4179147;28;20086;-72
2023/11/01 05:32:22;;;;;;;19.02;10.57;;;;;;;14.95;75.45;94442.13;4213900;28;20147;-72
2023/11/01 05:34:24;;;;;;;14.90;9.48;;;;;;;15.02;75.46;94445.59;4195414;28;20447;-70
2023/11/01 05:36:28;;;;;;;16.83;9.93;;;;;;;15.08;75.26;94449.31;4212548;28;20834;-71
2023/11/01 05:38:29;;;;;;;19.65;11.95;;;;;;;15.10;74.97;94453.38;4195938;28;20049;-71
2023/11/01 05:40:31;;;;;;;18.90;10.70;;;;;;;15.09;74.81;94459.66;4213000;28;20099;-70
2023/11/01 05:42:33;;;;;;;19.90;11.30;;;;;;;15.14;75.04;94457.25;4195152;28;20052;-71
2023/11/01 05:44:35;;;;;;;18.05;11.32;;;;;;;14.99;74.30;94458.34;4212106;28;20047;-73
2023/11/01 05:46:37;;;;;;;18.52;13.40;;;;;;;14.97;75.28;94463.84;4213594;28;20090;-72
2023/11/01 05:48:42;;;;;;;21.33;13.52;;;;;;;14.91;75.71;94465.41;4207716;28;20043;-72
2023/11/01 05:50:44;;;;;;;20.38;13.75;;;;;;;14.86;76.11;94464.34;4207146;28;20503;-71
2023/11/01 05:52:46;;;;;;;26.65;13.25;;;;;;;14.74;76.83;94470.16;4213591;28;20480;-70
2023/11/01 05:54:48;;;;;;;16.85;12.32;;;;;;;14.81;76.79;94466.75;4195683;28;20398;-70
2023/11/01 05:56:54;;;;;;;17.00;11.60;;;;;;;14.86;76.42;94472.25;4206175;28;20044;-70
2023/11/01 05:58:56;;;;;;;15.13;11.10;;;;;;;14.96;75.93;94475.38;4210777;28;20392;-72
2023/11/01 06:00:57;;;;;;;16.30;10.88;;;;;;;15.07;75.64;94474.84;4207155;28;20044;-70
2023/11/01 06:02:59;;;;;;;15.77;10.77;;;;;;;15.19;75.16;94469.06;4213663;28;20056;-70
2023/11/01 06:05:03;;;;;;;15.27;10.73;;;;;;;15.29;74.50;94472.16;4199536;28;20064;-72
2023/11/01 06:07:06;;;;;;;17.70;11.60;;;;;;;15.40;74.35;94479.56;4213791;28;20709;-72
2023/11/01 06:09:08;;;;;;;18.73;10.98;;;;;;;15.52;74.23;94482.44;4195653;28;20477;-73
2023/11/01 06:11:10;;;;;;;20.10;11.73;;;;;;;15.62;73.96;94482.09;4213407;28;20048;-72
2023/11/01 06:13:12;;;;;;;17.38;12.88;;;;;;;15.73;73.74;94477.09;4210118;28;20059;-71
2023/11/01 06:15:14;;;;;;;20.33;12.77;;;;;;;15.81;73.37;94478.78;4212570;28;20052;-72
2023/11/01 06:17:16;;;;;;;14.37;11.80;;;;;;;15.88;73.29;94481.44;4213813;28;20078;-73
2023/11/01 06:19:18;;;;;;;23.27;12.05;;;;;;;15.95;72.30;94485.72;4214158;28;20102;-71
2023/11/01 06:21:20;;;;;;;15.80;11.25;;;;;;;16.04;72.46;94482.91;4222193;28;20052;-73
2023/11/01 06:23:22;;;;;;;18.98;11.88;;;;;;;16.12;72.15;94475.63;4212758;28;20054;-71
2023/11/01 06:25:24;;;;;;;13.57;10.18;;;;;;;16.17;71.67;94477.66;4206451;28;20053;-73
2023/11/01 06:27:28;;;;;;;17.48;11.38;;;;;;;16.22;71.99;94477.91;4208312;28;20055;-69
2023/11/01 06:29:30;;;;;;;16.50;11.27;;;;;;;16.28;71.98;94476.28;4211535;28;20052;-73
2023/11/01 06:31:33;;;;;;;14.18;10.60;;;;;;;16.34;71.81;94483.41;4200022;28;20052;-72
2023/11/01 06:33:36;;;;;;;13.07;10.25;;;;;;;16.41;71.60;94483.44;4212647;28;20097;-74
2023/11/01 06:35:40;;;;;;;13.73;10.10;;;;;;;16.48;71.39;94484.28;4205437;28;20060;-72
2023/11/01 06:37:42;;;;;;;14.52;10.25;;;;;;;16.48;70.49;94486.91;4209484;28;20484;-72
2023/11/01 06:39:44;;;;;;;15.25;9.57;;;;;;;16.47;70.37;94493.22;4181862;28;20089;-72
2023/11/01 06:41:45;;;;;;;15.70;11.05;;;;;;;16.36;70.31;94487.47;4195448;28;20047;-72
2023/11/01 06:43:48;;;;;;;18.38;10.68;;;;;;;16.35;70.94;94498.28;4212279;28;20123;-73
2023/11/01 06:45:49;;;;;;;17.48;11.18;;;;;;;16.37;70.67;94494.41;4212256;28;20849;-73
2023/11/01 06:47:52;;;;;;;14.57;10.18;;;;;;;16.27;70.72;94493.16;4202941;28;20052;-73
2023/11/01 06:49:54;;;;;;;10.82;7.90;;;;;;;15.96;70.79;94497.13;4209846;28;20477;-71
2023/11/01 06:51:58;;;;;;;15.60;8.80;;;;;;;15.53;72.56;94503.38;4213300;28;20536;-72
2023/11/01 06:54:02;;;;;;;13.38;8.25;;;;;;;15.65;73.02;94501.00;4194640;28;20135;-71
2023/11/01 06:56:05;;;;;;;14.68;7.93;;;;;;;15.46;72.50;94502.50;4195222;28;20138;-72
2023/11/01 06:58:06;;;;;;;11.85;8.07;;;;;;;15.63;72.61;94508.31;4194638;28;20492;-72
2023/11/01 07:00:09;;;;;;;13.10;8.00;;;;;;;15.55;71.74;94511.94;4211220;28;20056;-71
2023/11/01 07:02:10;;;;;;;12.25;7.47;;;;;;;15.48;72.18;94511.06;4212018;28;20485;-72
2023/11/01 07:04:12;;;;;;;11.82;8.05;;;;;;;15.59;72.52;94519.44;4212742;28;20048;-73
2023/11/01 07:06:16;;;;;;;12.40;8.43;;;;;;;15.81;71.96;94515.75;4213553;28;20427;-71
2023/11/01 07:08:22;;;;;;;16.65;7.75;;;;;;;15.99;71.45;94511.78;4209418;28;20051;-73
2023/11/01 07:10:24;;;;;;;14.20;7.72;;;;;;;16.11;70.93;94511.00;4184830;28;20131;-73
2023/11/01 07:12:27;;;;;;;14.45;7.90;;;;;;;16.25;70.66;94519.78;4195020;28;20487;-74
2023/11/01 07:14:29;;;;;;;14.90;7.82;;;;;;;16.37;69.58;94517.41;4213218;28;20419;-74
2023/11/01 07:16:31;;;;;;;18.20;8.82;;;;;;;16.28;69.39;94522.06;4193892;28;20058;-72
2023/11/01 07:18:40;;;;;;;13.32;8.27;;;;;;;16.25;69.30;94521.63;4211604;28;20131;-73
2023/11/01 07:20:43;;;;;;;14.82;7.65;;;;;;;16.30;69.58;94520.00;4213188;28;20074;-72
2023/11/01 07:22:45;;;;;;;11.50;8.05;;;;;;;16.48;69.58;94523.94;4212419;28;20044;-72
2023/11/01 07:24:47;;;;;;;11.68;6.65;;;;;;;16.59;68.95;94524.16;4211238;28;20295;-71
2023/11/01 07:26:51;;;;;;;11.35;7.20;;;;;;;16.66;68.68;94531.28;4202561;28;20047;-72
2023/11/01 07:28:54;;;;;;;11.80;7.13;;;;;;;16.51;68.30;94529.63;4212233;28;20097;-73
2023/11/01 07:30:56;;;;;;;11.32;6.70;;;;;;;16.23;69.27;94534.22;4192534;28;20052;-73
2023/11/01 07:32:59;;;;;;;10.80;7.28;;;;;;;16.12;69.84;94531.13;4211448;28;20076;-72
2023/11/01 07:35:03;;;;;;;15.32;8.02;;;;;;;16.21;69.56;94529.13;4213627;28;20547;-73
2023/11/01 07:37:05;;;;;;;16.27;7.95;;;;;;;16.28;69.69;94529.16;4204842;28;20412;-72
2023/11/01 07:39:08;;;;;;;10.88;6.32;;;;;;;16.44;69.21;94531.44;4188342;28;20057;-74
2023/11/01 07:41:09;;;;;;;9.90;7.00;;;;;;;16.55;68.84;94530.84;4212078;28;20434;-74
2023/11/01 07:43:11;;;;;;;13.82;6.93;;;;;;;16.74;68.40;94537.19;4210011;28;21247;-73
2023/11/01 07:45:13;;;;;;;15.90;7.18;;;;;;;16.83;67.43;94537.06;4202061;28;20471;-73
2023/11/01 07:47:16;;;;;;;13.02;6.47;;;;;;;16.80;67.04;94548.84;4206075;28;20040;-71
2023/11/01 07:49:18;;;;;;;12.25;6.47;;;;;;;16.77;66.72;94543.91;4212513;28;20044;-70
2023/11/01 07:51:21;;;;;;;9.35;6.15;;;;;;;16.84;67.36;94547.41;4211113;28;20044;-73
2023/11/01 07:53:24;;;;;;;10.27;6.88;;;;;;;16.89;67.25;94545.00;4184322;28;20041;-72
2023/11/01 07:55:25;;;;;;;12.55;6.90;;;;;;;16.98;67.06;94548.25;4176624;28;20154;-73
2023/11/01 07:57:28;;;;;;;11.70;7.20;;;;;;;17.04;67.11;94544.81;4203004;28;20052;-74
2023/11/01 07:59:30;;;;;;;10.13;6.20;;;;;;;17.18;66.43;94554.38;4210317;28;20516;-73
2023/11/01 08:01:32;;;;;;;9.73;6.70;;;;;;;17.27;66.05;94559.47;4177236;28;20045;-72
2023/11/01 08:03:36;;;;;;;13.43;6.50;;;;;;;17.33;65.66;94566.59;4197094;28;20481;-71
2023/11/01 08:05:39;;;;;;;9.77;6.15;;;;;;;17.41;65.59;94569.03;4198836;28;20436;-73
2023/11/01 08:07:40;;;;;;;14.07;7.88;;;;;;;17.48;65.60;94563.75;4217353;28;20052;-73
2023/11/01 08:09:48;;;;;;;14.13;7.35;;;;;;;17.56;65.39;94566.19;4215247;28;20036;-74
2023/11/01 08:11:51;;;;;;;16.23;7.95;;;;;;;17.59;65.32;94563.94;4213896;28;20053;-73
2023/11/01 08:13:52;;;;;;;16.20;7.85;;;;;;;17.56;64.80;94566.19;4214996;28;20044;-72
2023/11/01 08:15:54;;;;;;;15.43;7.93;;;;;;;17.52;65.20;94557.00;4214871;28;20127;-73
2023/11/01 08:17:56;;;;;;;18.13;7.75;;;;;;;17.69;65.23;94557.41;4215587;28;20451;-73
2023/11/01 08:19:58;;;;;;;11.50;7.80;;;;;;;17.94;64.79;94569.00;4214642;28;20052;-72
2023/11/01 08:22:04;;;;;;;23.55;7.72;;;;;;;18.20;64.18;94578.72;4211440;28;20098;-72
2023/11/01 08:24:07;;;;;;;17.15;7.25;;;;;;;18.24;62.59;94572.97;4213512;28;20109;-72
2023/11/01 08:26:15;;;;;;;15.75;8.30;;;;;;;18.18;62.87;94574.66;4212898;28;20097;-73
2023/11/01 08:28:18;;;;;;;12.70;7.55;;;;;;;18.24;63.21;94589.72;4196570;28;20091;-73
2023/11/01 08:30:20;;;;;;;11.68;8.02;;;;;;;18.24;63.17;94592.38;4206427;28;20548;-71
2023/11/01 08:32:22;;;;;;;10.27;7.45;;;;;;;18.13;62.95;94585.03;4215351;28;20048;-71
2023/11/01 08:34:25;;;;;;;16.88;10.02;;;;;;;17.02;65.10;94601.59;4215079;28;20131;-73
2023/11/01 08:36:26;;;;;;;15.88;8.57;;;;;;;16.52;67.56;94607.09;4214349;28;20082;-73
2023/11/01 08:38:29;;;;;;;19.42;10.48;;;;;;;16.22;69.05;94612.69;4214773;28;20401;-73
2023/11/01 08:40:30;;;;;;;16.90;10.60;;;;;;;16.22;70.17;94614.50;4215919;28;20044;-73
2023/11/01 08:42:32;;;;;;;13.82;9.10;;;;;;;16.24;71.41;94618.63;4169045;28;20049;-73
2023/11/01 08:44:35;;;;;;;21.67;11.82;;;;;;;15.97;72.91;94615.81;4200725;28;20056;-72
2023/11/01 08:46:37;;;;;;;17.77;8.85;;;;;;;15.89;74.22;94621.22;4188379;28;20048;-72
2023/11/01 08:48:39;;;;;;;12.40;5.95;;;;;;;15.81;74.27;94631.97;4194671;28;20459;-72
2023/11/01 08:50:41;;;;;;;10.20;5.20;;;;;;;15.74;73.58;94624.00;4212146;28;20124;-72
2023/11/01 08:52:44;;;;;;;10.60;5.30;;;;;;;15.68;73.75;94621.25;4215290;28;20040;-73
2023/11/01 08:54:47;;;;;;;8.20;4.15;;;;;;;15.77;72.90;94622.81;4214638;28;20101;-72
2023/11/01 08:56:51;;;;;;;7.97;4.70;;;;;;;15.85;73.07;94627.09;4213434;28;20048;-74
2023/11/01 08:58:53;;;;;;;8.25;4.63;;;;;;;15.96;71.95;94627.41;4186001;28;20076;-73
2023/11/01 09:00:54;;;;;;;8.27;4.20;;;;;;;16.17;71.41;94630.94;4204856;28;20467;-72
2023/11/01 09:03:00;;;;;;;8.20;4.32;;;;;;;16.41;70.09;94632.28;4214533;28;20044;-73
2023/11/01 09:05:02;;;;;;;12.57;4.10;;;;;;;16.70;69.19;94630.38;4203296;28;20054;-75
2023/11/01 09:07:04;;;;;;;8.45;4.50;;;;;;;17.04;68.77;94634.78;4213287;28;20052;-74
2023/11/01 09:09:06;;;;;;;5.97;3.80;;;;;;;17.35;67.52;94625.47;4196959;28;20128;-73
2023/11/01 09:11:08;;;;;;;10.13;4.28;;;;;;;17.67;66.48;94625.66;4215232;28;20067;-73
2023/11/01 09:13:10;;;;;;;7.70;3.65;;;;;;;17.73;65.72;94628.31;4191916;28;20064;-72
2023/11/01 09:15:12;;;;;;;6.60;3.78;;;;;;;17.77;65.48;94629.53;4208239;28;20102;-73
2023/11/01 09:17:14;;;;;;;6.13;3.78;;;;;;;17.78;65.75;94633.81;4203823;28;20048;-73
2023/11/01 09:19:16;;;;;;;8.73;4.95;;;;;;;16.92;66.31;94634.53;4188010;28;20489;-73
2023/11/01 09:21:19;;;;;;;9.70;5.97;;;;;;;16.38;68.35;94638.78;4213005;28;20048;-72
2023/11/01 09:23:21;;;;;;;11.02;5.93;;;;;;;15.79;69.78;94641.91;4193400;28;20045;-72
2023/11/01 09:25:27;;;;;;;8.85;6.18;;;;;;;15.00;71.97;94636.75;4210869;28;20105;-72
2023/11/01 09:27:29;;;;;;;7.88;6.47;;;;;;;15.02;72.66;94645.28;4192058;28;20048;-73
2023/11/01 09:29:31;;;;;;;15.23;8.93;;;;;;;15.18;72.65;94652.13;4206273;28;20059;-73
2023/11/01 09:31:35;;;;;;;13.90;8.35;;;;;;;15.17;72.05;94645.22;4212406;28;20478;-70